createdAt,value
2022-10-19T00:00:42.172Z,0.00
2022-10-19T00:01:42.245Z,0.00
2022-10-19T00:02:42.162Z,0.00
2022-10-19T00:03:42.222Z,0.00
2022-10-19T00:04:42.225Z,0.00
2022-10-19T00:05:42.135Z,0.00
2022-10-19T00:06:42.103Z,0.00
2022-10-19T00:07:42.109Z,0.00
2022-10-19T00:08:42.102Z,0.00
2022-10-19T00:09:42.111Z,0.00
2022-10-19T00:10:42.091Z,0.00
2022-10-19T00:11:42.106Z,0.00
2022-10-19T00:12:42.116Z,0.00
2022-10-19T00:13:42.047Z,0.00
2022-10-19T00:14:42.032Z,0.00
2022-10-19T00:15:42.038Z,0.00
2022-10-19T00:16:42.098Z,0.00
2022-10-19T00:17:42.007Z,0.00
2022-10-19T00:18:41.991Z,0.00
2022-10-19T00:19:42.019Z,0.00
2022-10-19T00:20:41.991Z,0.00
2022-10-19T00:21:42.032Z,0.00
2022-10-19T00:22:41.932Z,0.00
2022-10-19T00:23:41.958Z,0.00
2022-10-19T00:24:41.960Z,0.00
2022-10-19T00:25:41.919Z,0.00
2022-10-19T00:26:41.908Z,0.00
2022-10-19T00:27:41.911Z,0.00
2022-10-19T00:28:41.944Z,0.00
2022-10-19T00:29:41.887Z,0.00
2022-10-19T00:30:41.894Z,0.00
2022-10-19T00:31:41.865Z,0.00
2022-10-19T00:32:41.856Z,0.00
2022-10-19T00:33:41.895Z,0.00
2022-10-19T00:34:41.846Z,0.00
2022-10-19T00:35:41.885Z,0.00
2022-10-19T00:36:41.793Z,0.00
2022-10-19T00:37:41.781Z,0.00
2022-10-19T00:38:41.795Z,0.00
2022-10-19T00:39:41.847Z,0.00
2022-10-19T00:40:41.741Z,0.00
2022-10-19T00:41:41.775Z,0.00
2022-10-19T00:42:41.783Z,0.00
2022-10-19T00:43:41.745Z,0.00
2022-10-19T00:44:41.731Z,0.00
2022-10-19T00:45:41.719Z,0.00
2022-10-19T00:46:41.689Z,0.00
2022-10-19T00:47:41.715Z,0.00
2022-10-19T00:48:41.718Z,0.00
2022-10-19T00:49:41.656Z,0.00
2022-10-19T00:50:41.651Z,0.00
2022-10-19T00:51:41.641Z,0.00
2022-10-19T00:52:41.637Z,0.00
2022-10-19T00:53:41.612Z,0.00
2022-10-19T00:54:41.612Z,0.00
2022-10-19T00:55:41.625Z,0.00
2022-10-19T00:56:41.580Z,0.00
2022-10-19T00:57:41.793Z,0.00
2022-10-19T00:58:41.592Z,0.00
2022-10-19T00:59:41.598Z,0.00
2022-10-19T01:00:41.559Z,0.00
2022-10-19T01:01:41.566Z,0.00
2022-10-19T01:02:41.532Z,0.00
2022-10-19T01:03:41.558Z,0.00
2022-10-19T01:04:41.541Z,0.00
2022-10-19T01:05:41.517Z,0.00
2022-10-19T01:06:41.531Z,0.00
2022-10-19T01:07:41.524Z,0.00
2022-10-19T01:08:41.446Z,0.00
2022-10-19T01:09:41.438Z,0.00
2022-10-19T01:10:41.475Z,0.00
2022-10-19T01:11:41.446Z,0.00
2022-10-19T01:12:41.445Z,0.00
2022-10-19T01:13:41.442Z,0.00
2022-10-19T01:14:41.411Z,0.00
2022-10-19T01:15:41.452Z,0.00
2022-10-19T01:16:41.385Z,0.00
2022-10-19T01:17:41.414Z,0.00
2022-10-19T01:18:41.436Z,0.00
2022-10-19T01:19:41.701Z,0.00
2022-10-19T01:20:41.438Z,0.00
2022-10-19T01:21:41.367Z,0.00
2022-10-19T01:22:41.346Z,0.00
2022-10-19T01:23:41.401Z,0.00
2022-10-19T01:24:41.358Z,0.00
2022-10-19T01:25:41.318Z,0.00
2022-10-19T01:26:41.291Z,0.00
2022-10-19T01:27:41.270Z,0.00
2022-10-19T01:28:41.407Z,0.00
2022-10-19T01:29:41.303Z,0.00
2022-10-19T01:30:41.280Z,0.00
2022-10-19T01:31:41.232Z,0.00
2022-10-19T01:32:41.310Z,0.00
2022-10-19T01:33:41.227Z,0.00
2022-10-19T01:34:41.280Z,0.00
2022-10-19T01:35:41.228Z,0.00
2022-10-19T01:36:41.271Z,0.00
2022-10-19T01:37:41.209Z,0.00
2022-10-19T01:38:41.248Z,0.00
2022-10-19T01:39:42.601Z,0.00
2022-10-19T01:40:41.275Z,0.00
2022-10-19T01:41:41.150Z,0.00
2022-10-19T01:42:41.241Z,0.00
2022-10-19T01:43:41.196Z,0.00
2022-10-19T01:44:41.124Z,0.00
2022-10-19T01:45:41.170Z,0.00
2022-10-19T01:46:41.080Z,0.00
2022-10-19T01:47:41.082Z,0.00
2022-10-19T01:48:41.082Z,0.00
2022-10-19T01:49:41.044Z,0.00
2022-10-19T01:50:41.076Z,0.00
2022-10-19T01:51:41.104Z,0.00
2022-10-19T01:52:41.023Z,0.00
2022-10-19T01:53:41.021Z,0.00
2022-10-19T01:54:41.073Z,0.00
2022-10-19T01:55:40.983Z,0.00
2022-10-19T01:56:41.055Z,0.00
2022-10-19T01:57:41.012Z,0.00
2022-10-19T01:58:40.973Z,0.00
2022-10-19T01:59:40.984Z,0.00
2022-10-19T02:00:41.051Z,0.00
2022-10-19T02:01:40.941Z,0.00
2022-10-19T02:02:40.977Z,0.00
2022-10-19T02:03:40.995Z,0.00
2022-10-19T02:04:40.989Z,0.00
2022-10-19T02:05:40.957Z,0.00
2022-10-19T02:06:40.909Z,0.00
2022-10-19T02:07:40.857Z,0.00
2022-10-19T02:08:40.898Z,0.00
2022-10-19T02:09:40.908Z,0.00
2022-10-19T02:10:40.849Z,0.00
2022-10-19T02:11:41.830Z,0.00
2022-10-19T02:12:40.875Z,0.00
2022-10-19T02:13:40.898Z,0.00
2022-10-19T02:14:40.886Z,0.00
2022-10-19T02:15:40.887Z,0.00
2022-10-19T02:16:40.834Z,0.00
2022-10-19T02:17:40.873Z,0.00
2022-10-19T02:18:40.876Z,0.00
2022-10-19T02:19:40.778Z,0.00
2022-10-19T02:20:40.791Z,0.00
2022-10-19T02:21:40.797Z,0.00
2022-10-19T02:22:40.777Z,0.00
2022-10-19T02:23:40.739Z,0.00
2022-10-19T02:24:40.691Z,0.00
2022-10-19T02:25:40.745Z,0.00
2022-10-19T02:26:40.749Z,0.00
2022-10-19T02:27:40.711Z,0.00
2022-10-19T02:28:40.759Z,0.00
2022-10-19T02:29:40.749Z,0.00
2022-10-19T02:30:40.617Z,0.00
2022-10-19T02:31:40.682Z,0.00
2022-10-19T02:32:40.783Z,0.00
2022-10-19T02:33:40.655Z,0.00
2022-10-19T02:34:40.650Z,0.00
2022-10-19T02:35:40.646Z,0.00
2022-10-19T02:36:40.641Z,0.00
2022-10-19T02:37:40.710Z,0.00
2022-10-19T02:38:40.667Z,0.00
2022-10-19T02:39:40.542Z,0.00
2022-10-19T02:40:40.546Z,0.00
2022-10-19T02:41:40.579Z,0.00
2022-10-19T02:42:40.558Z,0.00
2022-10-19T02:43:40.574Z,0.00
2022-10-19T02:44:40.522Z,0.00
2022-10-19T02:45:40.520Z,0.00
2022-10-19T02:47:40.474Z,0.00
2022-10-19T02:48:40.562Z,0.00
2022-10-19T02:49:40.525Z,0.00
2022-10-19T02:50:40.489Z,0.00
2022-10-19T02:51:40.480Z,0.00
2022-10-19T02:52:40.551Z,0.00
2022-10-19T02:53:40.459Z,0.00
2022-10-19T02:54:40.533Z,0.00
2022-10-19T02:56:40.375Z,0.00
2022-10-19T02:57:40.400Z,0.00
2022-10-19T02:58:40.372Z,0.00
2022-10-19T02:59:40.407Z,0.00
2022-10-19T03:00:40.471Z,0.00
2022-10-19T03:01:40.348Z,0.00
2022-10-19T03:02:40.376Z,0.00
2022-10-19T03:03:40.367Z,0.00
2022-10-19T03:04:40.402Z,0.00
2022-10-19T03:05:40.313Z,0.00
2022-10-19T03:06:40.317Z,0.00
2022-10-19T03:07:40.265Z,0.00
2022-10-19T03:08:40.346Z,0.00
2022-10-19T03:09:40.309Z,0.00
2022-10-19T03:10:40.307Z,0.00
2022-10-19T03:11:40.245Z,0.00
2022-10-19T03:12:40.289Z,0.00
2022-10-19T03:13:40.245Z,0.00
2022-10-19T03:14:40.271Z,0.00
2022-10-19T03:15:40.189Z,0.00
2022-10-19T03:16:40.209Z,0.00
2022-10-19T03:17:40.197Z,0.00
2022-10-19T03:18:40.177Z,0.00
2022-10-19T03:19:40.246Z,0.00
2022-10-19T03:20:40.214Z,0.00
2022-10-19T03:21:40.175Z,0.00
2022-10-19T03:22:40.247Z,0.00
2022-10-19T03:23:40.142Z,0.00
2022-10-19T03:24:40.105Z,0.00
2022-10-19T03:25:40.129Z,0.00
2022-10-19T03:26:40.062Z,0.00
2022-10-19T03:27:40.158Z,0.00
2022-10-19T03:28:40.136Z,0.00
2022-10-19T03:29:40.120Z,0.00
2022-10-19T03:30:40.061Z,0.00
2022-10-19T03:31:40.098Z,0.00
2022-10-19T03:32:40.114Z,0.00
2022-10-19T03:33:40.041Z,0.00
2022-10-19T03:34:40.088Z,0.00
2022-10-19T03:35:39.986Z,0.00
2022-10-19T03:36:39.990Z,0.00
2022-10-19T03:37:39.953Z,0.00
2022-10-19T03:38:39.977Z,0.00
2022-10-19T03:39:39.942Z,0.00
2022-10-19T03:40:39.994Z,0.00
2022-10-19T03:41:39.882Z,0.00
2022-10-19T03:42:39.971Z,0.00
2022-10-19T03:43:39.921Z,0.00
2022-10-19T03:44:39.926Z,0.00
2022-10-19T03:45:39.923Z,0.00
2022-10-19T03:46:39.908Z,0.00
2022-10-19T03:47:39.889Z,0.00
2022-10-19T03:48:39.896Z,0.00
2022-10-19T03:49:40.393Z,0.00
2022-10-19T03:50:39.923Z,0.00
2022-10-19T03:51:39.901Z,0.00
2022-10-19T03:52:39.814Z,0.00
2022-10-19T03:53:39.773Z,0.00
2022-10-19T03:54:39.822Z,0.00
2022-10-19T03:55:39.827Z,0.00
2022-10-19T03:56:39.835Z,0.00
2022-10-19T03:57:39.763Z,0.00
2022-10-19T03:58:39.768Z,0.00
2022-10-19T03:59:39.755Z,0.00
2022-10-19T04:00:39.799Z,0.00
2022-10-19T04:01:39.700Z,0.00
2022-10-19T04:02:39.756Z,0.00
2022-10-19T04:03:39.717Z,0.00
2022-10-19T04:04:39.682Z,0.00
2022-10-19T04:05:39.677Z,0.00
2022-10-19T04:06:39.691Z,0.00
2022-10-19T04:07:39.675Z,0.00
2022-10-19T04:08:39.727Z,0.00
2022-10-19T04:09:39.620Z,0.00
2022-10-19T04:10:39.609Z,0.00
2022-10-19T04:11:39.601Z,0.00
2022-10-19T04:12:39.619Z,0.00
2022-10-19T04:13:39.572Z,0.00
2022-10-19T04:14:56.446Z,0.00
2022-10-19T04:15:39.563Z,0.00
2022-10-19T04:16:39.540Z,0.00
2022-10-19T04:17:39.546Z,0.00
2022-10-19T04:18:39.540Z,0.00
2022-10-19T04:19:39.500Z,0.00
2022-10-19T04:20:39.513Z,0.00
2022-10-19T04:21:39.514Z,0.00
2022-10-19T04:22:39.507Z,0.00
2022-10-19T04:23:39.516Z,0.00
2022-10-19T04:24:39.539Z,0.00
2022-10-19T04:25:39.470Z,0.00
2022-10-19T04:26:39.459Z,0.00
2022-10-19T04:27:39.428Z,0.00
2022-10-19T04:28:39.427Z,0.00
2022-10-19T04:29:39.406Z,0.00
2022-10-19T04:30:39.423Z,0.00
2022-10-19T04:31:39.381Z,0.00
2022-10-19T04:32:39.379Z,0.00
2022-10-19T04:33:39.433Z,0.00
2022-10-19T04:34:40.171Z,0.00
2022-10-19T04:35:39.337Z,0.00
2022-10-19T04:36:39.345Z,0.00
2022-10-19T04:37:39.339Z,0.00
2022-10-19T04:38:39.331Z,0.00
2022-10-19T04:39:39.362Z,0.00
2022-10-19T04:40:39.313Z,0.00
2022-10-19T04:41:39.334Z,0.00
2022-10-19T04:42:39.287Z,0.00
2022-10-19T04:43:39.276Z,0.00
2022-10-19T04:44:39.311Z,0.00
2022-10-19T04:45:39.274Z,0.00
2022-10-19T04:46:39.222Z,0.00
2022-10-19T04:47:39.256Z,0.00
2022-10-19T04:48:39.235Z,0.00
2022-10-19T04:49:39.251Z,0.00
2022-10-19T04:50:39.186Z,0.00
2022-10-19T04:51:39.187Z,0.00
2022-10-19T04:52:39.409Z,0.00
2022-10-19T04:53:39.490Z,0.00
2022-10-19T04:54:39.434Z,0.00
2022-10-19T04:55:39.439Z,0.00
2022-10-19T04:56:39.295Z,0.00
2022-10-19T04:57:39.573Z,0.00
2022-10-19T04:58:39.274Z,0.00
2022-10-19T04:59:39.415Z,0.00
2022-10-19T05:00:39.326Z,0.00
2022-10-19T05:01:43.281Z,0.00
2022-10-19T05:02:39.231Z,0.00
2022-10-19T05:03:39.540Z,0.00
2022-10-19T05:04:41.833Z,0.00
2022-10-19T05:05:39.304Z,0.00
2022-10-19T05:06:39.394Z,0.00
2022-10-19T05:07:39.210Z,0.00
2022-10-19T05:08:39.264Z,0.00
2022-10-19T05:09:39.171Z,0.00
2022-10-19T05:10:40.467Z,0.00
2022-10-19T05:11:39.112Z,0.00
2022-10-19T05:12:39.130Z,0.00
2022-10-19T05:13:39.311Z,0.00
2022-10-19T05:14:41.972Z,0.00
2022-10-19T05:15:39.228Z,0.00
2022-10-19T05:16:39.224Z,0.00
2022-10-19T05:17:39.036Z,0.00
2022-10-19T05:18:39.109Z,0.00
2022-10-19T05:19:39.154Z,0.00
2022-10-19T05:20:39.167Z,0.00
2022-10-19T05:21:39.061Z,0.00
2022-10-19T05:22:39.073Z,0.00
2022-10-19T05:23:39.107Z,0.00
2022-10-19T05:24:38.995Z,0.00
2022-10-19T05:25:38.941Z,1.00
2022-10-19T05:26:39.153Z,0.00
2022-10-19T05:27:39.031Z,0.00
2022-10-19T05:28:38.955Z,1.00
2022-10-19T05:29:38.852Z,1.00
2022-10-19T05:30:38.981Z,0.00
2022-10-19T05:31:39.088Z,0.00
2022-10-19T05:32:38.860Z,2.00
2022-10-19T05:33:38.874Z,1.00
2022-10-19T05:34:38.951Z,0.00
2022-10-19T05:35:38.821Z,2.00
2022-10-19T05:36:38.833Z,2.00
2022-10-19T05:37:38.798Z,7.00
2022-10-19T05:38:38.822Z,3.00
2022-10-19T05:39:38.884Z,1.00
2022-10-19T05:40:38.777Z,2.00
2022-10-19T05:41:38.890Z,2.00
2022-10-19T05:42:38.792Z,3.00
2022-10-19T05:43:38.765Z,5.00
2022-10-19T05:45:38.907Z,5.00
2022-10-19T05:46:38.701Z,7.00
2022-10-19T05:47:38.762Z,8.00
2022-10-19T05:48:38.694Z,9.00
2022-10-19T05:49:38.777Z,11.00
2022-10-19T05:50:38.622Z,11.00
2022-10-19T05:51:38.634Z,12.00
2022-10-19T05:52:38.754Z,14.00
2022-10-19T05:54:38.615Z,22.00
2022-10-19T05:55:38.637Z,34.00
2022-10-19T05:56:38.641Z,31.00
2022-10-19T05:57:38.599Z,37.00
2022-10-19T05:58:38.558Z,37.00
2022-10-19T05:59:38.597Z,44.00
2022-10-19T06:00:38.521Z,50.00
2022-10-19T06:01:38.556Z,58.00
2022-10-19T06:02:38.527Z,64.00
2022-10-19T06:03:38.552Z,67.00
2022-10-19T06:04:38.454Z,71.00
2022-10-19T06:05:38.526Z,73.00
2022-10-19T06:06:38.763Z,74.00
2022-10-19T06:07:38.448Z,80.00
2022-10-19T06:08:38.464Z,88.00
2022-10-19T06:09:38.463Z,94.00
2022-10-19T06:10:38.369Z,93.00
2022-10-19T06:11:38.350Z,115.00
2022-10-19T06:12:38.358Z,121.00
2022-10-19T06:13:38.404Z,112.00
2022-10-19T06:14:38.444Z,133.00
2022-10-19T06:15:38.435Z,134.00
2022-10-19T06:16:38.408Z,134.00
2022-10-19T06:17:38.370Z,149.00
2022-10-19T06:18:38.318Z,129.00
2022-10-19T06:19:38.308Z,170.00
2022-10-19T06:20:38.415Z,165.00
2022-10-19T06:21:40.648Z,172.00
2022-10-19T06:22:38.322Z,192.00
2022-10-19T06:23:38.361Z,157.00
2022-10-19T06:24:38.421Z,180.00
2022-10-19T06:25:38.287Z,173.00
2022-10-19T06:26:38.303Z,196.00
2022-10-19T06:27:38.633Z,184.00
2022-10-19T06:28:38.248Z,189.00
2022-10-19T06:29:38.203Z,208.00
2022-10-19T06:30:38.298Z,198.00
2022-10-19T06:31:38.218Z,193.00
2022-10-19T06:32:38.180Z,244.00
2022-10-19T06:33:38.284Z,230.00
2022-10-19T06:34:38.147Z,274.00
2022-10-19T06:35:38.152Z,257.00
2022-10-19T06:36:38.172Z,223.00
2022-10-19T06:37:38.155Z,232.00
2022-10-19T06:38:38.167Z,263.00
2022-10-19T06:39:38.124Z,283.00
2022-10-19T06:40:38.091Z,315.00
2022-10-19T06:41:38.091Z,330.00
2022-10-19T06:42:38.227Z,351.00
2022-10-19T06:43:38.130Z,361.00
2022-10-19T06:44:38.093Z,337.00
2022-10-19T06:45:38.011Z,343.00
2022-10-19T06:46:38.016Z,352.00
2022-10-19T06:47:38.544Z,439.00
2022-10-19T06:48:38.032Z,459.00
2022-10-19T06:49:37.966Z,482.00
2022-10-19T06:50:37.985Z,570.00
2022-10-19T06:51:37.991Z,574.00
2022-10-19T06:52:38.035Z,488.00
2022-10-19T06:53:37.973Z,497.00
2022-10-19T06:54:38.021Z,479.00
2022-10-19T06:55:38.092Z,526.00
2022-10-19T06:56:37.985Z,507.00
2022-10-19T06:57:38.042Z,441.00
2022-10-19T06:58:37.915Z,459.00
2022-10-19T06:59:37.976Z,584.00
2022-10-19T07:00:37.930Z,651.00
2022-10-19T07:01:37.890Z,659.00
2022-10-19T07:02:37.860Z,688.00
2022-10-19T07:03:37.793Z,605.00
2022-10-19T07:04:37.813Z,538.00
2022-10-19T07:05:37.874Z,530.00
2022-10-19T07:06:37.809Z,993.00
2022-10-19T07:07:38.203Z,605.00
2022-10-19T07:08:37.829Z,868.00
2022-10-19T07:09:37.774Z,828.00
2022-10-19T07:10:37.751Z,770.00
2022-10-19T07:11:38.880Z,810.00
2022-10-19T07:12:37.767Z,748.00
2022-10-19T07:13:37.818Z,976.00
2022-10-19T07:14:37.739Z,1028.00
2022-10-19T07:15:37.749Z,1374.00
2022-10-19T07:16:37.710Z,840.00
2022-10-19T07:17:37.810Z,319.00
2022-10-19T07:18:37.704Z,1524.00
2022-10-19T07:19:37.613Z,880.00
2022-10-19T07:20:37.725Z,861.00
2022-10-19T07:21:37.789Z,1702.00
2022-10-19T07:22:37.627Z,1240.00
2022-10-19T07:23:37.692Z,637.00
2022-10-19T07:24:37.587Z,1431.00
2022-10-19T07:25:37.629Z,1039.00
2022-10-19T07:26:37.626Z,1886.00
2022-10-19T07:27:37.928Z,1270.00
2022-10-19T07:28:37.658Z,736.00
2022-10-19T07:29:37.590Z,1813.00
2022-10-19T07:30:37.567Z,1857.00
2022-10-19T07:31:37.527Z,916.00
2022-10-19T07:32:37.647Z,788.00
2022-10-19T07:33:37.595Z,1402.00
2022-10-19T07:34:37.529Z,1440.00
2022-10-19T07:35:37.548Z,1587.00
2022-10-19T07:36:37.495Z,1600.00
2022-10-19T07:37:37.551Z,1868.00
2022-10-19T07:38:37.522Z,2179.00
2022-10-19T07:39:37.556Z,1464.00
2022-10-19T07:40:37.557Z,1752.00
2022-10-19T07:41:37.438Z,704.00
2022-10-19T07:42:37.407Z,1921.00
2022-10-19T07:43:37.472Z,2147.00
2022-10-19T07:44:37.581Z,2040.00
2022-10-19T07:45:37.523Z,1354.00
2022-10-19T07:46:37.470Z,2149.00
2022-10-19T07:47:37.508Z,1221.00
2022-10-19T07:48:37.377Z,1682.00
2022-10-19T07:49:37.431Z,1704.00
2022-10-19T07:50:37.375Z,2075.00
2022-10-19T07:51:37.445Z,2449.00
2022-10-19T07:52:37.562Z,2077.00
2022-10-19T07:53:37.386Z,2664.00
2022-10-19T07:54:37.352Z,2098.00
2022-10-19T07:55:37.407Z,2358.00
2022-10-19T07:56:37.403Z,2022.00
2022-10-19T07:57:37.296Z,1892.00
2022-10-19T07:58:37.341Z,1887.00
2022-10-19T07:59:37.248Z,1920.00
2022-10-19T08:00:37.248Z,1820.00
2022-10-19T08:01:37.284Z,1864.00
2022-10-19T08:02:54.682Z,1803.00
2022-10-19T08:05:37.286Z,2153.00
2022-10-19T08:06:37.217Z,1211.00
2022-10-19T08:07:37.280Z,2031.00
2022-10-19T08:08:37.241Z,2089.00
2022-10-19T08:09:53.926Z,1948.00
2022-10-19T08:10:37.115Z,1391.00
2022-10-19T08:11:37.221Z,2302.00
2022-10-19T08:12:37.203Z,2079.00
2022-10-19T08:13:37.240Z,1576.00
2022-10-19T08:14:37.077Z,2591.00
2022-10-19T08:15:37.148Z,2081.00
2022-10-19T08:16:37.093Z,2339.00
2022-10-19T08:17:37.057Z,1646.00
2022-10-19T08:18:37.044Z,2628.00
2022-10-19T08:19:37.057Z,1750.00
2022-10-19T08:20:37.064Z,2182.00
2022-10-19T08:21:37.014Z,1999.00
2022-10-19T08:22:37.141Z,1660.00
2022-10-19T08:23:36.954Z,1565.00
2022-10-19T08:24:37.005Z,1489.00
2022-10-19T08:25:36.952Z,1539.00
2022-10-19T08:26:36.903Z,1529.00
2022-10-19T08:28:36.937Z,1402.00
2022-10-19T08:29:36.899Z,1450.00
2022-10-19T08:30:36.919Z,1471.00
2022-10-19T08:31:36.890Z,1471.00
2022-10-19T08:32:37.130Z,1537.00
2022-10-19T08:33:36.955Z,1577.00
2022-10-19T08:34:36.882Z,1559.00
2022-10-19T08:35:36.874Z,1241.00
2022-10-19T08:36:36.919Z,1447.00
2022-10-19T08:37:44.720Z,2382.00
2022-10-19T08:38:36.872Z,2785.00
2022-10-19T08:39:36.774Z,3048.00
2022-10-19T08:40:36.837Z,3591.00
2022-10-19T08:41:36.846Z,3939.00
2022-10-19T08:42:36.906Z,3954.00
2022-10-19T08:43:36.802Z,3874.00
2022-10-19T08:44:36.782Z,3260.00
2022-10-19T08:45:36.825Z,2686.00
2022-10-19T08:46:36.771Z,2713.00
2022-10-19T08:47:37.127Z,3075.00
2022-10-19T08:48:36.700Z,2165.00
2022-10-19T08:49:36.795Z,2539.00
2022-10-19T08:50:36.715Z,2763.00
2022-10-19T08:51:36.706Z,2828.00
2022-10-19T08:52:36.754Z,2434.00
2022-10-19T08:53:36.691Z,2262.00
2022-10-19T08:54:36.706Z,2021.00
2022-10-19T08:55:36.651Z,2081.00
2022-10-19T08:56:50.675Z,1894.00
2022-10-19T08:57:36.877Z,1849.00
2022-10-19T08:58:36.582Z,1953.00
2022-10-19T08:59:36.661Z,1815.00
2022-10-19T09:00:36.704Z,1873.00
2022-10-19T09:01:37.736Z,1738.00
2022-10-19T09:02:36.771Z,1729.00
2022-10-19T09:03:56.903Z,1809.00
2022-10-19T09:04:36.612Z,1783.00
2022-10-19T09:05:36.536Z,1890.00
2022-10-19T09:06:36.491Z,1580.00
2022-10-19T09:07:36.839Z,1678.00
2022-10-19T09:08:36.505Z,1744.00
2022-10-19T09:09:36.524Z,1775.00
2022-10-19T09:10:36.485Z,1707.00
2022-10-19T09:11:36.473Z,1759.00
2022-10-19T09:12:36.566Z,1617.00
2022-10-19T09:13:41.658Z,1658.00
2022-10-19T09:14:36.450Z,1600.00
2022-10-19T09:15:36.441Z,1622.00
2022-10-19T09:16:36.509Z,1674.00
2022-10-19T09:17:36.456Z,1744.00
2022-10-19T09:18:36.402Z,1371.00
2022-10-19T09:19:36.354Z,1699.00
2022-10-19T09:20:36.397Z,1621.00
2022-10-19T09:21:42.058Z,1590.00
2022-10-19T09:22:36.697Z,1736.00
2022-10-19T09:23:36.325Z,1722.00
2022-10-19T09:24:36.474Z,1672.00
2022-10-19T09:25:36.387Z,1664.00
2022-10-19T09:26:36.333Z,1659.00
2022-10-19T09:27:36.405Z,1723.00
2022-10-19T09:28:39.702Z,1822.00
2022-10-19T09:29:36.265Z,1707.00
2022-10-19T09:30:36.295Z,1650.00
2022-10-19T09:31:40.362Z,1793.00
2022-10-19T09:32:36.466Z,1774.00
2022-10-19T09:33:36.222Z,1679.00
2022-10-19T09:34:36.264Z,1639.00
2022-10-19T09:35:36.227Z,1788.00
2022-10-19T09:36:50.129Z,1661.00
2022-10-19T09:37:36.229Z,1618.00
2022-10-19T09:38:36.190Z,1633.00
2022-10-19T09:39:36.214Z,1588.00
2022-10-19T09:40:36.105Z,1647.00
2022-10-19T09:41:36.130Z,1674.00
2022-10-19T09:42:36.421Z,1704.00
2022-10-19T09:43:36.117Z,1657.00
2022-10-19T09:44:36.078Z,1627.00
2022-10-19T09:45:36.155Z,1872.00
2022-10-19T09:46:38.656Z,1696.00
2022-10-19T09:47:36.409Z,1717.00
2022-10-19T09:48:36.014Z,1741.00
2022-10-19T09:49:36.040Z,1473.00
2022-10-19T09:50:36.003Z,1772.00
2022-10-19T09:51:36.011Z,1799.00
2022-10-19T09:52:36.048Z,1840.00
2022-10-19T09:53:35.970Z,1801.00
2022-10-19T09:54:35.974Z,1707.00
2022-10-19T09:55:36.033Z,1745.00
2022-10-19T09:56:35.951Z,1767.00
2022-10-19T09:57:36.211Z,1665.00
2022-10-19T09:58:35.935Z,2059.00
2022-10-19T09:59:35.942Z,1581.00
2022-10-19T10:00:35.921Z,1585.00
2022-10-19T10:01:41.795Z,1493.00
2022-10-19T10:02:36.175Z,2367.00
2022-10-19T10:03:35.910Z,1341.00
2022-10-19T10:04:35.890Z,1694.00
2022-10-19T10:05:35.907Z,1803.00
2022-10-19T10:06:35.888Z,1573.00
2022-10-19T10:07:36.244Z,1783.00
2022-10-19T10:08:35.917Z,1882.00
2022-10-19T10:09:35.830Z,1793.00
2022-10-19T10:10:35.824Z,1904.00
2022-10-19T10:11:35.878Z,1790.00
2022-10-19T10:12:36.061Z,1784.00
2022-10-19T10:13:35.788Z,1870.00
2022-10-19T10:14:35.747Z,1795.00
2022-10-19T10:15:35.803Z,1963.00
2022-10-19T10:16:35.854Z,1767.00
2022-10-19T10:17:35.725Z,1849.00
2022-10-19T10:18:35.738Z,2063.00
2022-10-19T10:19:35.729Z,2024.00
2022-10-19T10:20:35.702Z,1830.00
2022-10-19T10:21:35.702Z,1926.00
2022-10-19T10:22:36.048Z,2032.00
2022-10-19T10:23:35.681Z,2021.00
2022-10-19T10:24:35.639Z,1816.00
2022-10-19T10:25:35.667Z,2248.00
2022-10-19T10:27:36.015Z,1580.00
2022-10-19T10:28:35.641Z,1832.00
2022-10-19T10:29:35.737Z,1888.00
2022-10-19T10:30:35.612Z,1991.00
2022-10-19T10:31:35.562Z,2114.00
2022-10-19T10:32:36.001Z,1855.00
2022-10-19T10:33:50.401Z,1925.00
2022-10-19T10:34:49.467Z,2149.00
2022-10-19T10:35:35.530Z,1877.00
2022-10-19T10:36:35.528Z,1906.00
2022-10-19T10:37:35.939Z,1985.00
2022-10-19T10:38:35.498Z,1958.00
2022-10-19T10:39:35.510Z,1847.00
2022-10-19T10:40:35.481Z,2186.00
2022-10-19T10:41:35.480Z,1926.00
2022-10-19T10:42:35.867Z,1983.00
2022-10-19T10:43:35.457Z,1973.00
2022-10-19T10:44:35.445Z,2068.00
2022-10-19T10:45:35.415Z,1930.00
2022-10-19T10:46:35.444Z,2079.00
2022-10-19T10:47:35.791Z,1856.00
2022-10-19T10:48:35.432Z,2088.00
2022-10-19T10:49:35.431Z,2095.00
2022-10-19T10:50:35.387Z,1850.00
2022-10-19T10:51:35.399Z,2202.00
2022-10-19T10:52:35.642Z,2199.00
2022-10-19T10:53:35.364Z,1913.00
2022-10-19T10:54:35.354Z,2233.00
2022-10-19T10:55:35.356Z,2083.00
2022-10-19T10:56:35.383Z,1413.00
2022-10-19T10:57:35.280Z,2645.00
2022-10-19T10:58:35.312Z,970.00
2022-10-19T10:59:35.270Z,1708.00
2022-10-19T11:00:35.299Z,1985.00
2022-10-19T11:01:35.357Z,2715.00
2022-10-19T11:02:35.267Z,1320.00
2022-10-19T11:03:35.212Z,1818.00
2022-10-19T11:04:35.257Z,1857.00
2022-10-19T11:05:35.228Z,2674.00
2022-10-19T11:06:35.201Z,2523.00
2022-10-19T11:07:35.629Z,1808.00
2022-10-19T11:08:35.254Z,3527.00
2022-10-19T11:09:35.173Z,793.00
2022-10-19T11:10:35.169Z,1333.00
2022-10-19T11:11:35.130Z,2153.00
2022-10-19T11:12:35.340Z,2003.00
2022-10-19T11:13:35.161Z,2734.00
2022-10-19T11:14:35.137Z,1386.00
2022-10-19T11:15:35.115Z,2064.00
2022-10-19T11:16:35.106Z,2195.00
2022-10-19T11:17:35.204Z,2066.00
2022-10-19T11:18:35.081Z,2322.00
2022-10-19T11:19:35.083Z,2091.00
2022-10-19T11:20:35.068Z,2554.00
2022-10-19T11:21:35.069Z,2625.00
2022-10-19T11:22:35.359Z,2395.00
2022-10-19T11:23:35.044Z,2295.00
2022-10-19T11:24:35.009Z,1970.00
2022-10-19T11:25:35.018Z,2211.00
2022-10-19T11:26:34.965Z,1849.00
2022-10-19T11:27:35.363Z,2105.00
2022-10-19T11:28:34.987Z,2142.00
2022-10-19T11:29:34.954Z,2028.00
2022-10-19T11:30:38.898Z,2045.00
2022-10-19T11:31:34.969Z,2454.00
2022-10-19T11:32:35.262Z,1939.00
2022-10-19T11:33:34.968Z,2194.00
2022-10-19T11:34:34.938Z,2151.00
2022-10-19T11:35:34.909Z,3452.00
2022-10-19T11:36:34.878Z,2800.00
2022-10-19T11:37:35.109Z,768.00
2022-10-19T11:38:34.887Z,2193.00
2022-10-19T11:39:34.888Z,2617.00
2022-10-19T11:40:34.831Z,1154.00
2022-10-19T11:41:34.870Z,1970.00
2022-10-19T11:42:34.990Z,2201.00
2022-10-19T11:43:34.797Z,1894.00
2022-10-19T11:44:34.797Z,3116.00
2022-10-19T11:45:34.790Z,1360.00
2022-10-19T11:46:34.800Z,2226.00
2022-10-19T11:47:34.977Z,1981.00
2022-10-19T11:48:34.738Z,2248.00
2022-10-19T11:49:34.726Z,1667.00
2022-10-19T11:50:34.804Z,1805.00
2022-10-19T11:51:34.710Z,1943.00
2022-10-19T11:52:34.965Z,2010.00
2022-10-19T11:53:34.728Z,1712.00
2022-10-19T11:54:34.682Z,3512.00
2022-10-19T11:55:34.686Z,867.00
2022-10-19T11:56:44.689Z,1574.00
2022-10-19T11:57:35.005Z,2218.00
2022-10-19T11:58:35.263Z,1504.00
2022-10-19T11:59:34.683Z,1953.00
2022-10-19T12:00:39.144Z,2513.00
2022-10-19T12:01:34.804Z,1566.00
2022-10-19T12:02:34.954Z,1971.00
2022-10-19T12:03:34.594Z,1957.00
2022-10-19T12:04:34.634Z,1980.00
2022-10-19T12:05:34.620Z,1416.00
2022-10-19T12:06:34.584Z,1936.00
2022-10-19T12:07:34.556Z,1950.00
2022-10-19T12:08:34.561Z,2030.00
2022-10-19T12:09:34.569Z,1680.00
2022-10-19T12:10:34.548Z,1721.00
2022-10-19T12:11:34.507Z,1912.00
2022-10-19T12:12:34.743Z,1591.00
2022-10-19T12:13:34.485Z,1710.00
2022-10-19T12:14:34.513Z,1789.00
2022-10-19T12:15:35.343Z,1785.00
2022-10-19T12:16:34.439Z,1798.00
2022-10-19T12:17:34.725Z,1798.00
2022-10-19T12:18:34.426Z,1714.00
2022-10-19T12:19:34.444Z,2135.00
2022-10-19T12:20:36.784Z,1776.00
2022-10-19T12:21:34.645Z,1901.00
2022-10-19T12:22:34.398Z,1747.00
2022-10-19T12:23:34.367Z,1706.00
2022-10-19T12:24:34.408Z,1881.00
2022-10-19T12:25:34.361Z,1844.00
2022-10-19T12:26:34.346Z,2137.00
2022-10-19T12:27:34.656Z,1783.00
2022-10-19T12:28:34.333Z,1238.00
2022-10-19T12:29:34.332Z,1946.00
2022-10-19T12:30:34.339Z,1828.00
2022-10-19T12:31:34.315Z,1570.00
2022-10-19T12:32:34.296Z,1929.00
2022-10-19T12:33:34.322Z,1357.00
2022-10-19T12:34:34.254Z,1278.00
2022-10-19T12:35:34.254Z,1806.00
2022-10-19T12:36:34.274Z,1718.00
2022-10-19T12:37:34.516Z,1637.00
2022-10-19T12:38:34.208Z,1550.00
2022-10-19T12:39:34.217Z,1750.00
2022-10-19T12:40:34.199Z,1556.00
2022-10-19T12:41:34.205Z,1489.00
2022-10-19T12:42:34.204Z,1572.00
2022-10-19T12:43:34.214Z,1694.00
2022-10-19T12:44:34.214Z,1666.00
2022-10-19T12:45:34.124Z,1672.00
2022-10-19T12:46:34.190Z,1571.00
2022-10-19T12:47:34.481Z,1563.00
2022-10-19T12:48:34.127Z,1632.00